Time;durP1;ratioP1;P1;durP2;ratioP2;P2;SDS_P1;SDS_P2;PMS_P1;PMS_P2;Temp;Humidity;BMP_temperature;BMP_pressure;BME280_temperature;BME280_humidity;BME280_pressure;Samples;Min_cycle;Max_cycle;Signal;HPM_P1;HPM_P2
2022/01/31 00:01:03;;;;;;;22.48;13.20;;;;;;;3.95;100.00;99939.44;4908993;29;20627;-81
2022/01/31 00:03:33;;;;;;;24.23;13.70;;;;;;;4.10;99.24;99941.72;4901552;29;20203;-83
2022/01/31 00:06:00;;;;;;;20.52;14.68;;;;;;;3.80;100.00;99929.16;4908542;29;20196;-82
2022/01/31 00:08:28;;;;;;;25.30;16.15;;;;;;;3.62;100.00;99930.50;4909220;29;20233;-82
2022/01/31 00:10:55;;;;;;;21.50;15.10;;;;;;;3.63;100.00;99925.16;4907281;29;20658;-82
2022/01/31 00:13:27;;;;;;;19.83;13.68;;;;;;;3.70;100.00;99915.22;4909569;29;20667;-83
2022/01/31 00:15:56;;;;;;;21.80;13.55;;;;;;;3.76;100.00;99894.63;4898766;29;20196;-83
2022/01/31 00:18:23;;;;;;;20.70;12.63;;;;;;;3.96;100.00;99895.91;4906053;29;20206;-82
2022/01/31 00:20:50;;;;;;;21.48;13.85;;;;;;;4.18;100.00;99877.53;4909049;29;20297;-81
2022/01/31 00:23:16;;;;;;;23.80;14.60;;;;;;;4.09;100.00;99870.69;4912651;29;20658;-83
2022/01/31 00:25:44;;;;;;;16.67;11.18;;;;;;;4.32;97.39;99859.38;4901516;29;20225;-83
2022/01/31 00:28:11;;;;;;;24.15;13.90;;;;;;;4.28;98.31;99849.72;4902816;29;20641;-83
2022/01/31 00:30:39;;;;;;;20.17;10.45;;;;;;;4.54;95.43;99824.09;4907801;29;20238;-82
2022/01/31 00:33:05;;;;;;;14.90;8.98;;;;;;;4.50;94.73;99817.97;4904323;29;20277;-83
2022/01/31 00:35:33;;;;;;;15.75;9.50;;;;;;;4.33;96.06;99791.81;4914625;29;20317;-83
2022/01/31 00:38:00;;;;;;;16.23;10.55;;;;;;;4.51;95.93;99792.19;4909135;29;20205;-83
2022/01/31 00:40:26;;;;;;;19.58;11.20;;;;;;;4.49;95.80;99783.34;4911063;29;20681;-83
2022/01/31 00:42:54;;;;;;;18.77;11.52;;;;;;;4.52;95.94;99767.25;4906096;29;20201;-83
2022/01/31 00:45:25;;;;;;;13.82;11.27;;;;;;;4.56;94.63;99756.44;4899113;29;20204;-82
2022/01/31 00:48:01;;;;;;;20.38;12.00;;;;;;;4.45;95.50;99755.03;4906252;29;20194;-83
2022/01/31 00:50:28;;;;;;;18.83;11.05;;;;;;;4.52;95.39;99735.25;4910217;29;20201;-83
2022/01/31 00:52:56;;;;;;;22.35;13.40;;;;;;;4.58;95.14;99725.25;4914487;29;20205;-83
2022/01/31 00:55:22;;;;;;;18.30;12.77;;;;;;;4.57;95.16;99706.66;4907407;29;20195;-83
2022/01/31 00:57:49;;;;;;;19.23;11.90;;;;;;;4.55;94.98;99700.50;4911703;29;20201;-83
2022/01/31 01:00:18;;;;;;;19.40;11.48;;;;;;;4.46;95.98;99688.34;4912905;29;20308;-83
2022/01/31 01:02:45;;;;;;;23.38;12.60;;;;;;;4.36;96.53;99678.88;4908536;29;20301;-83
2022/01/31 01:05:13;;;;;;;20.08;11.93;;;;;;;4.44;97.16;99667.97;4905444;29;20194;-83
2022/01/31 01:07:40;;;;;;;22.63;12.23;;;;;;;4.56;96.40;99672.91;4905048;29;20208;-83
2022/01/31 01:10:07;;;;;;;17.45;9.65;;;;;;;4.44;96.57;99668.84;4911694;29;20229;-83
2022/01/31 01:12:34;;;;;;;19.85;11.60;;;;;;;4.25;98.71;99663.22;4901330;29;20588;-83
2022/01/31 01:15:01;;;;;;;22.45;11.13;;;;;;;3.92;100.00;99663.34;4908800;29;20294;-83
2022/01/31 01:17:29;;;;;;;17.35;11.35;;;;;;;3.53;100.00;99650.28;4905009;29;20201;-83
2022/01/31 01:19:55;;;;;;;21.45;12.27;;;;;;;3.39;100.00;99632.94;4910397;29;20319;-83
2022/01/31 01:22:22;;;;;;;16.10;9.13;;;;;;;3.48;100.00;99622.91;4908100;29;20204;-82
2022/01/31 01:24:49;;;;;;;15.75;8.82;;;;;;;3.69;100.00;99634.72;4904764;29;20947;-82
2022/01/31 01:27:19;;;;;;;16.48;6.50;;;;;;;4.02;100.00;99618.63;4905420;29;20209;-82
2022/01/31 01:29:46;;;;;;;15.02;9.70;;;;;;;4.05;100.00;99599.00;4910853;29;20642;-82
2022/01/31 01:32:13;;;;;;;8.63;6.25;;;;;;;4.18;100.00;99597.69;4913175;29;20195;-82
2022/01/31 01:34:41;;;;;;;15.73;8.27;;;;;;;4.15;100.00;99593.34;4902299;29;20311;-82
2022/01/31 01:37:08;;;;;;;11.70;6.55;;;;;;;4.09;100.00;99568.69;4903117;29;20282;-83
2022/01/31 01:39:34;;;;;;;14.90;9.50;;;;;;;4.04;100.00;99562.63;4908712;29;20241;-83
2022/01/31 01:42:01;;;;;;;14.40;6.15;;;;;;;4.47;100.00;99559.41;4907854;29;20613;-82
2022/01/31 01:44:43;;;;;;;18.30;5.18;;;;;;;4.49;99.16;99548.72;4904640;29;20214;-82
2022/01/31 01:47:10;;;;;;;13.32;7.57;;;;;;;4.55;98.12;99537.84;4904835;29;20623;-83
2022/01/31 01:49:36;;;;;;;13.95;5.07;;;;;;;4.56;98.44;99539.56;4904628;29;20540;-82
2022/01/31 01:52:06;;;;;;;12.05;4.75;;;;;;;4.64;97.46;99537.53;4905922;29;20295;-82
2022/01/31 01:54:33;;;;;;;10.82;5.07;;;;;;;4.77;96.55;99532.59;4908147;29;20632;-82
2022/01/31 01:57:02;;;;;;;14.90;5.60;;;;;;;4.80;96.38;99520.03;4903550;29;20294;-82
2022/01/31 01:59:29;;;;;;;12.18;5.35;;;;;;;4.84;95.13;99514.59;4908131;29;20215;-83
2022/01/31 02:01:56;;;;;;;9.02;5.00;;;;;;;4.88;94.72;99510.88;4913859;29;20243;-83
2022/01/31 02:04:23;;;;;;;9.48;5.30;;;;;;;4.85;95.00;99495.88;4908530;29;20193;-83
2022/01/31 02:06:49;;;;;;;10.35;5.82;;;;;;;4.80;95.07;99490.69;4910699;29;20188;-82
2022/01/31 02:09:22;;;;;;;7.45;5.35;;;;;;;4.76;95.67;99474.84;4912561;29;20872;-82
2022/01/31 02:11:48;;;;;;;12.88;6.10;;;;;;;4.92;94.66;99475.16;4911586;29;20649;-82
2022/01/31 02:14:15;;;;;;;17.85;6.30;;;;;;;4.92;95.08;99456.50;4911495;29;20208;-82
2022/01/31 02:16:42;;;;;;;14.65;5.65;;;;;;;4.94;94.42;99450.16;4938169;29;20224;-82
2022/01/31 02:19:14;;;;;;;11.20;5.93;;;;;;;5.01;94.60;99430.31;4932269;29;20206;-82
2022/01/31 02:21:42;;;;;;;7.15;5.43;;;;;;;5.03;94.83;99406.25;4912278;29;20190;-82
2022/01/31 02:24:08;;;;;;;10.38;6.40;;;;;;;4.90;95.26;99394.31;4911342;29;20220;-82
2022/01/31 02:26:35;;;;;;;11.80;6.15;;;;;;;4.74;96.50;99381.56;4908442;29;20191;-82
2022/01/31 02:29:02;;;;;;;11.40;5.93;;;;;;;4.87;96.76;99378.44;4904586;29;20560;-81
2022/01/31 02:31:28;;;;;;;11.77;6.13;;;;;;;4.95;96.23;99355.88;4912761;29;20221;-81
2022/01/31 02:33:55;;;;;;;14.32;7.22;;;;;;;4.89;97.14;99347.22;4914907;29;20300;-81
2022/01/31 02:36:22;;;;;;;8.68;6.38;;;;;;;4.87;97.25;99322.41;4905652;29;20215;-81
2022/01/31 02:38:49;;;;;;;10.07;7.03;;;;;;;4.87;97.73;99317.06;4911297;29;20205;-82
2022/01/31 02:41:16;;;;;;;12.45;5.45;;;;;;;4.94;97.68;99314.09;4908995;29;20229;-82
2022/01/31 02:43:48;;;;;;;10.70;5.90;;;;;;;5.00;97.25;99332.53;4907441;29;20638;-82
2022/01/31 02:46:15;;;;;;;13.02;5.45;;;;;;;5.03;97.42;99328.88;4910953;29;20197;-82
2022/01/31 02:48:42;;;;;;;25.35;5.80;;;;;;;4.90;98.33;99347.16;4910188;29;20193;-82
2022/01/31 02:51:10;;;;;;;15.60;5.88;;;;;;;4.84;99.53;99362.53;4914022;29;20205;-82
2022/01/31 02:53:41;;;;;;;9.20;5.32;;;;;;;4.86;100.00;99356.22;4900276;29;20202;-82
2022/01/31 02:56:10;;;;;;;11.90;5.75;;;;;;;4.93;99.95;99352.38;4904029;29;20552;-83
2022/01/31 02:58:36;;;;;;;15.45;5.93;;;;;;;4.89;99.90;99348.09;4910498;29;20924;-82
2022/01/31 03:01:04;;;;;;;10.35;5.68;;;;;;;4.86;100.00;99350.00;4901258;29;20227;-82
2022/01/31 03:03:30;;;;;;;18.80;7.32;;;;;;;4.76;100.00;99342.34;4907152;29;20194;-82
2022/01/31 03:05:57;;;;;;;12.05;6.30;;;;;;;4.60;100.00;99338.53;4909974;29;20276;-82
2022/01/31 03:08:24;;;;;;;10.57;5.45;;;;;;;4.79;100.00;99334.25;4910722;29;20204;-82
2022/01/31 03:10:51;;;;;;;14.52;5.40;;;;;;;4.88;100.00;99341.00;4907687;29;20201;-82
2022/01/31 03:13:19;;;;;;;10.70;6.13;;;;;;;4.84;100.00;99343.84;4905519;29;20633;-82
2022/01/31 03:15:46;;;;;;;12.40;5.63;;;;;;;4.83;100.00;99337.66;4902750;29;20297;-82
2022/01/31 03:18:13;;;;;;;12.10;6.40;;;;;;;4.91;100.00;99321.38;4916962;29;20909;-82
2022/01/31 03:20:39;;;;;;;11.95;5.78;;;;;;;4.94;100.00;99324.75;4917392;29;20289;-82
2022/01/31 03:23:06;;;;;;;9.73;5.10;;;;;;;4.94;100.00;99315.91;4906941;29;20236;-82
2022/01/31 03:25:33;;;;;;;13.23;6.32;;;;;;;4.93;100.00;99295.47;4913533;29;20281;-82
2022/01/31 03:28:00;;;;;;;13.43;5.70;;;;;;;5.09;100.00;99288.59;4907110;29;20242;-82
2022/01/31 03:30:29;;;;;;;7.30;5.45;;;;;;;5.18;100.00;99293.56;4907491;29;20204;-82
2022/01/31 03:32:55;;;;;;;14.10;5.90;;;;;;;5.08;100.00;99273.50;4903728;29;20208;-82
2022/01/31 03:35:23;;;;;;;13.70;5.90;;;;;;;5.15;100.00;99264.31;4916099;29;20988;-82
2022/01/31 03:37:50;;;;;;;9.13;4.78;;;;;;;5.13;100.00;99263.53;4899388;29;20198;-82
2022/01/31 03:40:16;;;;;;;12.68;4.45;;;;;;;5.05;100.00;99256.78;4906941;29;20206;-83
2022/01/31 03:42:43;;;;;;;12.25;4.70;;;;;;;5.18;100.00;99250.84;4907228;29;20909;-82
2022/01/31 03:45:12;;;;;;;12.88;5.57;;;;;;;5.28;100.00;99247.81;4905722;29;20209;-83
2022/01/31 03:47:44;;;;;;;10.90;5.00;;;;;;;5.39;99.86;99235.72;4914157;29;20545;-82
2022/01/31 03:50:12;;;;;;;14.40;6.00;;;;;;;5.44;99.89;99225.72;4911269;29;20186;-82
2022/01/31 03:52:39;;;;;;;12.32;5.63;;;;;;;5.37;100.00;99212.69;4902155;29;20800;-82
2022/01/31 03:55:07;;;;;;;10.40;4.95;;;;;;;5.33;100.00;99211.94;4914448;29;20294;-82
2022/01/31 03:57:34;;;;;;;17.88;5.55;;;;;;;5.35;100.00;99198.56;4904646;29;20202;-82
2022/01/31 04:00:01;;;;;;;10.27;5.43;;;;;;;5.33;100.00;99195.06;4906341;29;20211;-82
2022/01/31 04:02:28;;;;;;;11.38;4.88;;;;;;;5.38;100.00;99198.41;4913332;29;20206;-82
2022/01/31 04:04:56;;;;;;;16.05;6.47;;;;;;;5.33;100.00;99177.25;4910603;29;20289;-82
2022/01/31 04:07:23;;;;;;;13.00;5.40;;;;;;;5.43;100.00;99167.06;4901542;29;20217;-83
2022/01/31 04:09:50;;;;;;;9.27;4.78;;;;;;;5.35;100.00;99161.16;4911263;29;20197;-82
2022/01/31 04:12:16;;;;;;;6.90;4.47;;;;;;;5.41;100.00;99163.59;4898440;29;20294;-83
2022/01/31 04:14:43;;;;;;;10.52;5.18;;;;;;;5.28;100.00;99162.38;4913010;29;20203;-82
2022/01/31 04:17:10;;;;;;;11.52;4.97;;;;;;;5.33;100.00;99160.38;4906365;29;20213;-82
2022/01/31 04:19:38;;;;;;;13.32;4.70;;;;;;;5.37;100.00;99144.16;4906397;29;20203;-81
2022/01/31 04:22:09;;;;;;;9.55;5.18;;;;;;;5.43;100.00;99138.53;4905541;29;20306;-82
2022/01/31 04:24:35;;;;;;;10.73;4.25;;;;;;;5.34;100.00;99138.09;4912245;29;20198;-81
2022/01/31 04:27:06;;;;;;;13.27;4.43;;;;;;;5.30;100.00;99126.66;4909141;29;20198;-84
2022/01/31 04:29:35;;;;;;;13.43;5.55;;;;;;;5.29;100.00;99124.94;4905576;29;20191;-82
2022/01/31 04:32:01;;;;;;;14.63;4.75;;;;;;;5.28;100.00;99114.31;4908729;29;20201;-81
2022/01/31 04:34:29;;;;;;;11.02;5.55;;;;;;;5.36;100.00;99104.16;4908883;29;20317;-83
2022/01/31 04:36:55;;;;;;;10.20;4.95;;;;;;;5.41;100.00;99095.03;4902852;29;20258;-83
2022/01/31 04:39:24;;;;;;;10.20;5.20;;;;;;;5.50;100.00;99101.75;4912405;29;20267;-83
2022/01/31 04:41:51;;;;;;;11.30;4.18;;;;;;;5.39;100.00;99091.56;4910738;29;20229;-83
2022/01/31 04:44:18;;;;;;;8.75;4.45;;;;;;;5.48;100.00;99078.72;4902343;29;20339;-83
2022/01/31 04:46:49;;;;;;;11.52;4.47;;;;;;;5.43;100.00;99079.81;4915383;29;20201;-83
2022/01/31 04:49:16;;;;;;;18.45;5.38;;;;;;;5.59;100.00;99079.09;4908667;29;20197;-83
2022/01/31 04:51:42;;;;;;;10.32;4.68;;;;;;;5.40;100.00;99068.38;4906369;29;20189;-83
2022/01/31 04:54:09;;;;;;;12.35;5.60;;;;;;;5.23;100.00;99070.03;4908227;29;20206;-83
2022/01/31 04:56:40;;;;;;;12.25;5.10;;;;;;;5.17;100.00;99067.63;4911968;29;20191;-84
2022/01/31 04:59:06;;;;;;;11.98;5.57;;;;;;;5.18;100.00;99057.84;4903768;29;20194;-84
2022/01/31 05:01:34;;;;;;;11.30;5.20;;;;;;;5.03;100.00;99053.16;4916206;29;20232;-85
2022/01/31 05:04:00;;;;;;;14.02;5.43;;;;;;;4.97;100.00;99055.16;4905038;29;20209;-84
2022/01/31 05:06:32;;;;;;;13.10;5.50;;;;;;;4.96;100.00;99056.09;4919558;29;20203;-85
2022/01/31 05:08:58;;;;;;;14.10;5.72;;;;;;;4.80;100.00;99057.72;4931908;29;20198;-85
2022/01/31 05:11:25;;;;;;;12.45;5.75;;;;;;;4.71;100.00;99048.28;4905068;29;20204;-84
2022/01/31 05:13:53;;;;;;;19.95;5.25;;;;;;;4.65;100.00;99055.69;4905141;29;20204;-84
2022/01/31 05:16:20;;;;;;;13.82;5.93;;;;;;;4.51;100.00;99051.81;4905584;29;20202;-84
2022/01/31 05:18:46;;;;;;;10.32;6.20;;;;;;;4.62;100.00;99040.69;4900986;29;20613;-84
2022/01/31 05:21:13;;;;;;;17.13;6.22;;;;;;;4.80;100.00;99025.69;4913402;29;20371;-83
2022/01/31 05:23:39;;;;;;;17.23;6.20;;;;;;;4.55;100.00;99031.22;4911520;29;20206;-83
2022/01/31 05:26:06;;;;;;;10.48;5.88;;;;;;;4.45;100.00;99027.19;4908662;29;20645;-83
2022/01/31 05:28:33;;;;;;;14.80;6.82;;;;;;;4.34;100.00;99032.97;4910848;29;20207;-84
2022/01/31 05:31:01;;;;;;;6.95;5.07;;;;;;;4.08;100.00;99042.06;4905385;29;20308;-82
2022/01/31 05:33:28;;;;;;;18.67;6.18;;;;;;;4.01;100.00;99048.56;4915722;29;20628;-83
2022/01/31 05:35:55;;;;;;;12.10;5.93;;;;;;;3.94;100.00;99045.28;4906952;29;20242;-83
2022/01/31 05:38:22;;;;;;;15.13;7.30;;;;;;;3.96;100.00;99040.75;4901452;29;20285;-83
2022/01/31 05:40:49;;;;;;;11.45;6.22;;;;;;;3.96;100.00;99049.63;4900878;29;20734;-83
2022/01/31 05:43:16;;;;;;;12.60;6.47;;;;;;;4.07;100.00;99045.63;4911649;29;20632;-83
2022/01/31 05:45:43;;;;;;;9.55;6.57;;;;;;;4.05;100.00;99053.72;4904721;29;20233;-83
2022/01/31 05:48:11;;;;;;;19.95;7.75;;;;;;;4.03;100.00;99039.59;4908613;29;20205;-83
2022/01/31 05:50:37;;;;;;;14.60;7.45;;;;;;;4.04;100.00;99035.97;4911577;29;20197;-83
2022/01/31 05:53:04;;;;;;;11.43;7.35;;;;;;;4.02;100.00;99047.63;4916633;29;20293;-83
2022/01/31 05:55:31;;;;;;;18.65;9.10;;;;;;;4.05;100.00;99044.81;4908764;29;20288;-85
2022/01/31 05:57:57;;;;;;;12.05;7.25;;;;;;;4.17;100.00;99053.19;4912120;29;20204;-83
2022/01/31 06:00:24;;;;;;;13.05;8.55;;;;;;;4.13;100.00;99050.72;4909291;29;20212;-84
2022/01/31 06:02:58;;;;;;;10.85;6.80;;;;;;;4.02;100.00;99048.47;4920027;29;20198;-86
2022/01/31 06:05:26;;;;;;;10.40;6.45;;;;;;;4.05;100.00;99053.72;4907793;29;20211;-86
2022/01/31 06:07:53;;;;;;;11.75;6.68;;;;;;;3.98;100.00;99049.56;4916528;29;20355;-81
2022/01/31 06:10:23;;;;;;;11.73;6.60;;;;;;;4.00;100.00;99047.69;4909288;29;20216;-85
2022/01/31 06:12:51;;;;;;;10.02;6.50;;;;;;;4.11;100.00;99037.44;4911536;29;20208;-85
2022/01/31 06:15:18;;;;;;;6.90;5.22;;;;;;;4.17;100.00;99041.69;4914845;29;20209;-89
2022/01/31 06:17:45;;;;;;;9.50;6.18;;;;;;;4.17;100.00;99047.00;4904038;29;20286;-79
2022/01/31 06:20:12;;;;;;;10.80;6.32;;;;;;;4.20;100.00;99038.88;4911202;29;20291;-82
2022/01/31 06:22:46;;;;;;;15.75;5.82;;;;;;;4.25;100.00;99044.03;4905697;29;20203;-81
2022/01/31 06:25:12;;;;;;;10.65;5.55;;;;;;;4.26;100.00;99041.31;4911175;29;20558;-83
2022/01/31 06:27:39;;;;;;;10.25;5.70;;;;;;;4.38;100.00;99046.09;4908343;29;20671;-84
2022/01/31 06:30:07;;;;;;;7.18;5.60;;;;;;;4.28;100.00;99020.78;4914436;29;20299;-83
2022/01/31 06:32:34;;;;;;;6.72;4.50;;;;;;;4.31;100.00;99028.66;4911429;29;20288;-85
2022/01/31 06:35:00;;;;;;;5.97;4.07;;;;;;;4.36;100.00;99034.69;4911299;29;20257;-84
2022/01/31 06:37:27;;;;;;;11.55;4.60;;;;;;;4.32;100.00;99034.84;4911072;29;20286;-82
2022/01/31 06:39:55;;;;;;;5.95;4.63;;;;;;;4.33;100.00;99036.59;4918887;29;20305;-83
2022/01/31 06:42:22;;;;;;;6.50;4.07;;;;;;;4.42;100.00;99014.88;4915475;29;20244;-84
2022/01/31 06:44:49;;;;;;;4.63;3.55;;;;;;;4.45;100.00;99033.38;4912553;29;20220;-85
2022/01/31 06:47:15;;;;;;;5.32;3.90;;;;;;;4.43;100.00;99039.72;4916921;29;20275;-85
2022/01/31 06:49:43;;;;;;;5.82;3.60;;;;;;;4.42;100.00;99036.19;4910633;29;20196;-84
2022/01/31 06:52:09;;;;;;;6.13;4.13;;;;;;;4.51;100.00;99025.16;4910904;29;20199;-81
2022/01/31 06:54:36;;;;;;;4.85;4.43;;;;;;;4.53;100.00;99025.94;4916185;29;20727;-81
2022/01/31 06:57:05;;;;;;;4.53;3.22;;;;;;;4.67;100.00;99024.50;4912098;29;20636;-81
2022/01/31 06:59:32;;;;;;;5.22;3.35;;;;;;;4.66;100.00;99026.31;4906211;29;20216;-81
2022/01/31 07:01:58;;;;;;;4.20;3.20;;;;;;;4.64;100.00;99030.81;4902704;29;20221;-83
2022/01/31 07:04:25;;;;;;;4.78;2.88;;;;;;;4.71;100.00;99023.44;4905580;29;20553;-83
2022/01/31 07:06:51;;;;;;;6.55;3.15;;;;;;;4.67;100.00;99036.03;4914837;29;20776;-84
2022/01/31 07:09:18;;;;;;;3.58;2.53;;;;;;;4.69;100.00;99034.16;4911629;29;20209;-82
2022/01/31 07:11:45;;;;;;;4.07;2.70;;;;;;;4.68;100.00;99031.53;4912009;29;20281;-81
2022/01/31 07:14:29;;;;;;;2.95;2.65;;;;;;;4.72;100.00;99022.50;4905876;29;20303;-81
2022/01/31 07:16:56;;;;;;;4.72;3.42;;;;;;;4.72;100.00;99025.16;4907821;29;20198;-80
2022/01/31 07:19:26;;;;;;;3.92;2.90;;;;;;;4.78;100.00;99023.09;4913919;29;20200;-80
2022/01/31 07:21:53;;;;;;;4.03;3.00;;;;;;;4.76;100.00;99016.09;4907517;29;20262;-79
2022/01/31 07:24:24;;;;;;;3.15;2.35;;;;;;;4.75;100.00;99023.22;4906967;29;20609;-82
2022/01/31 07:26:51;;;;;;;4.28;2.45;;;;;;;4.84;100.00;99026.41;4913001;29;20290;-80
2022/01/31 07:29:21;;;;;;;5.63;3.05;;;;;;;4.81;100.00;99017.59;4910166;29;20198;-80
2022/01/31 07:31:48;;;;;;;3.25;2.50;;;;;;;4.89;100.00;99017.28;4917176;29;20207;-82
2022/01/31 07:34:17;;;;;;;3.75;2.80;;;;;;;4.81;100.00;99016.75;4906801;29;20238;-81
2022/01/31 07:36:44;;;;;;;2.90;2.30;;;;;;;4.93;100.00;99023.34;4912313;29;20268;-78
2022/01/31 07:39:11;;;;;;;3.10;2.40;;;;;;;4.90;100.00;99015.47;4899445;29;20213;-83
2022/01/31 07:41:38;;;;;;;4.03;3.60;;;;;;;4.90;100.00;99000.34;4910490;29;20253;-84
2022/01/31 07:44:05;;;;;;;6.93;2.95;;;;;;;4.88;100.00;98998.66;4910333;29;20199;-88
2022/01/31 07:46:33;;;;;;;4.10;3.20;;;;;;;4.88;100.00;99012.00;4914625;29;20524;-85
2022/01/31 07:49:00;;;;;;;4.57;2.80;;;;;;;4.93;100.00;99002.00;4903481;29;20626;-89
2022/01/31 07:51:27;;;;;;;6.22;3.53;;;;;;;4.98;100.00;98992.88;4899979;29;20218;-88
2022/01/31 07:53:54;;;;;;;3.97;3.38;;;;;;;5.06;100.00;99008.53;4906992;29;20205;-85
2022/01/31 07:56:20;;;;;;;4.47;3.25;;;;;;;5.14;100.00;99005.53;4899536;29;20228;-86
2022/01/31 07:58:48;;;;;;;6.28;3.50;;;;;;;5.22;100.00;99017.59;4899737;29;20281;-86
2022/01/31 08:01:15;;;;;;;4.47;3.72;;;;;;;5.26;100.00;99020.09;4900468;29;20703;-89
2022/01/31 08:03:45;;;;;;;7.57;3.38;;;;;;;5.30;100.00;99021.69;4899474;29;20285;-88
2022/01/31 08:06:12;;;;;;;3.92;2.75;;;;;;;5.32;100.00;99028.69;4898982;29;20255;-87
2022/01/31 08:08:38;;;;;;;4.80;3.05;;;;;;;5.43;100.00;99031.75;4904783;29;20209;-86
2022/01/31 08:11:06;;;;;;;5.95;3.50;;;;;;;5.47;100.00;99026.25;4916762;29;20283;-85
2022/01/31 08:13:33;;;;;;;6.20;3.15;;;;;;;5.47;100.00;99036.94;4904812;29;20204;-85
2022/01/31 08:16:09;;;;;;;5.78;3.13;;;;;;;5.37;100.00;99036.50;4918251;29;20206;-85
2022/01/31 08:18:37;;;;;;;5.60;3.88;;;;;;;5.31;100.00;99039.44;4909976;29;20201;-86
2022/01/31 08:21:06;;;;;;;4.68;3.55;;;;;;;5.36;100.00;99042.75;4899172;29;20210;-88
2022/01/31 08:23:33;;;;;;;4.10;3.65;;;;;;;5.37;100.00;99037.34;4909941;29;20293;-88
2022/01/31 08:26:01;;;;;;;8.18;3.97;;;;;;;5.47;100.00;99036.94;4918089;29;20190;-87
2022/01/31 08:28:34;;;;;;;9.43;3.95;;;;;;;5.49;100.00;99032.38;4917988;29;20612;-87
2022/01/31 08:31:07;;;;;;;5.53;3.63;;;;;;;5.57;100.00;99041.78;4898767;29;20198;-87
2022/01/31 08:33:36;;;;;;;5.55;3.45;;;;;;;5.56;100.00;99042.72;4900229;29;20203;-87
2022/01/31 08:36:06;;;;;;;7.50;3.75;;;;;;;5.53;100.00;99037.50;4916061;29;20233;-86
2022/01/31 08:38:34;;;;;;;6.38;2.95;;;;;;;5.56;100.00;99048.06;4902529;29;20199;-86
2022/01/31 08:41:00;;;;;;;7.65;4.18;;;;;;;5.63;100.00;99043.28;4898920;29;20213;-86
2022/01/31 08:43:28;;;;;;;7.38;3.40;;;;;;;5.75;100.00;99026.69;4917065;29;20214;-86
2022/01/31 08:45:55;;;;;;;7.13;2.85;;;;;;;5.76;100.00;99032.91;4916601;29;20212;-86
2022/01/31 08:48:22;;;;;;;8.05;2.80;;;;;;;5.75;100.00;99026.69;4914899;29;20221;-86
2022/01/31 08:50:49;;;;;;;10.18;2.83;;;;;;;5.66;100.00;99027.13;4912648;29;20195;-86
2022/01/31 08:53:17;;;;;;;6.88;3.08;;;;;;;5.79;100.00;99014.06;4916302;29;20214;-86
2022/01/31 08:55:49;;;;;;;6.22;2.63;;;;;;;5.80;100.00;99015.78;4918221;29;20277;-86
2022/01/31 08:58:17;;;;;;;4.53;3.05;;;;;;;5.96;100.00;99024.81;4918581;29;20292;-85
2022/01/31 09:00:44;;;;;;;6.35;2.45;;;;;;;5.98;100.00;99009.59;4903973;29;20243;-85
2022/01/31 09:03:23;;;;;;;5.10;2.45;;;;;;;6.05;100.00;99011.00;4898414;29;20252;-85
2022/01/31 09:05:50;;;;;;;5.35;2.60;;;;;;;6.10;100.00;99007.25;4899024;29;20191;-85
2022/01/31 09:08:18;;;;;;;6.43;3.08;;;;;;;6.06;100.00;98993.19;4898524;29;20210;-85
2022/01/31 09:10:44;;;;;;;6.88;2.58;;;;;;;5.99;100.00;98997.97;4898933;29;20207;-85
2022/01/31 09:13:14;;;;;;;3.03;2.00;;;;;;;5.93;100.00;98997.38;4909098;29;20277;-86
2022/01/31 09:15:41;;;;;;;3.38;2.30;;;;;;;5.78;100.00;98998.97;4917571;29;20210;-85
2022/01/31 09:18:09;;;;;;;5.38;2.25;;;;;;;5.72;100.00;99018.84;4918512;29;20202;-85
2022/01/31 09:20:35;;;;;;;4.82;2.22;;;;;;;5.69;100.00;99018.09;4916972;29;20209;-85
2022/01/31 09:23:03;;;;;;;6.78;2.05;;;;;;;5.68;100.00;99011.91;4917087;29;20672;-85
2022/01/31 09:25:31;;;;;;;6.45;2.20;;;;;;;5.64;100.00;99016.50;4916398;29;20292;-85
2022/01/31 09:27:58;;;;;;;5.50;2.78;;;;;;;5.76;100.00;99014.19;4918170;29;20212;-85
2022/01/31 09:30:27;;;;;;;5.05;2.17;;;;;;;5.79;100.00;99003.38;4917374;29;20214;-85
2022/01/31 09:32:54;;;;;;;8.43;3.45;;;;;;;5.91;100.00;99012.59;4908350;29;20198;-85
2022/01/31 09:35:21;;;;;;;5.68;2.20;;;;;;;5.89;100.00;99011.81;4910293;29;20331;-85
2022/01/31 09:37:48;;;;;;;3.95;2.58;;;;;;;6.03;100.00;99018.22;4917420;29;20186;-85
2022/01/31 09:40:19;;;;;;;6.32;2.55;;;;;;;5.89;100.00;99022.50;4907925;29;20233;-85
2022/01/31 09:43:07;;;;;;;2.00;1.83;;;;;;;5.91;100.00;99029.50;4898293;29;20210;-85
2022/01/31 09:45:51;;;;;;;5.40;2.50;;;;;;;5.93;100.00;99024.94;4898505;29;20191;-85
2022/01/31 09:48:33;;;;;;;7.40;2.33;;;;;;;5.93;100.00;99011.59;4910644;29;20217;-84
2022/01/31 09:51:00;;;;;;;6.07;2.95;;;;;;;5.88;100.00;99018.97;4899228;29;20202;-84
2022/01/31 09:53:28;;;;;;;9.07;2.40;;;;;;;5.95;100.00;99015.09;4898948;29;20198;-86
2022/01/31 09:55:54;;;;;;;5.00;2.60;;;;;;;6.02;100.00;99024.53;4898285;29;20205;-86
2022/01/31 09:58:24;;;;;;;4.90;2.30;;;;;;;6.10;100.00;99001.91;4898901;29;20290;-86
2022/01/31 10:01:04;;;;;;;8.85;2.80;;;;;;;6.17;98.40;99000.66;4899132;29;20199;-86
2022/01/31 10:03:30;;;;;;;5.72;3.22;;;;;;;6.25;98.95;99009.19;4898378;29;20317;-85
2022/01/31 10:05:57;;;;;;;5.90;2.13;;;;;;;6.25;96.98;99001.16;4909347;29;20226;-84
2022/01/31 10:08:30;;;;;;;3.10;2.20;;;;;;;6.20;96.68;99008.53;4902095;29;20657;-79
2022/01/31 10:11:01;;;;;;;7.32;2.10;;;;;;;6.18;96.32;99010.44;4912895;29;20637;-80
2022/01/31 10:16:27;;;;;;;2.15;1.80;;;;;;;6.26;96.40;99017.13;4915835;29;20238;-81
2022/01/31 10:19:05;;;;;;;6.55;2.50;;;;;;;6.33;94.73;99012.34;4914916;29;20202;-83
2022/01/31 10:21:32;;;;;;;4.63;2.15;;;;;;;6.45;94.63;99011.72;4916373;29;20217;-87
2022/01/31 10:23:59;;;;;;;3.67;1.70;;;;;;;6.36;93.16;99006.81;4900229;29;20283;-83
2022/01/31 10:26:33;;;;;;;5.53;2.10;;;;;;;6.46;92.29;99024.13;4906050;29;20196;-81
2022/01/31 10:29:12;;;;;;;6.03;2.83;;;;;;;6.26;93.18;99011.78;4919244;29;20209;-84
2022/01/31 10:31:52;;;;;;;5.68;2.38;;;;;;;6.30;93.15;99007.13;4913929;29;20193;-83
2022/01/31 10:34:21;;;;;;;8.82;3.03;;;;;;;6.31;94.38;99011.56;4916274;29;20261;-81
2022/01/31 10:36:48;;;;;;;8.57;2.22;;;;;;;6.36;92.04;99011.31;4919780;29;20222;-80
2022/01/31 10:43:22;;;;;;;5.05;1.98;;;;;;;6.37;92.75;99019.25;4920510;29;20237;-83
2022/01/31 10:45:27;;;;;;;2.33;2.00;;;;;;;6.64;89.42;99008.94;4919429;29;20209;-82
2022/01/31 10:53:53;;;;;;;5.40;2.22;;;;;;;6.64;88.17;99008.94;4914538;29;20197;-81
2022/01/31 10:56:26;;;;;;;3.03;2.30;;;;;;;6.80;87.14;99006.34;4921029;29;20186;-81
2022/01/31 10:58:55;;;;;;;5.55;2.28;;;;;;;6.77;88.84;99013.69;4919040;29;20194;-83
2022/01/31 11:01:24;;;;;;;4.68;2.35;;;;;;;6.80;88.34;99019.72;4905311;29;20210;-83
2022/01/31 11:03:53;;;;;;;6.70;3.03;;;;;;;6.73;88.26;99018.31;4920427;29;20672;-82
2022/01/31 11:06:20;;;;;;;7.60;2.60;;;;;;;6.57;89.06;99022.72;4918899;29;20297;-83
2022/01/31 11:08:48;;;;;;;6.30;2.33;;;;;;;6.53;89.14;99039.88;4919394;29;20657;-82
2022/01/31 11:11:15;;;;;;;7.30;2.50;;;;;;;6.54;89.00;99017.53;4919117;29;20644;-82
2022/01/31 11:13:41;;;;;;;4.47;2.08;;;;;;;6.56;88.94;99034.38;4916653;29;20594;-83
2022/01/31 11:16:11;;;;;;;9.13;3.05;;;;;;;6.64;89.00;99042.88;4917513;29;20716;-81
2022/01/31 11:18:43;;;;;;;6.15;2.60;;;;;;;6.58;88.23;99033.38;4913138;29;20203;-81
2022/01/31 11:21:11;;;;;;;7.45;2.53;;;;;;;6.56;88.24;99050.44;4902177;29;20215;-80
2022/01/31 11:23:42;;;;;;;6.10;3.03;;;;;;;6.57;89.50;99041.47;4899331;29;20341;-80
2022/01/31 11:26:11;;;;;;;5.00;3.20;;;;;;;6.61;89.87;99049.25;4900004;29;20206;-81
2022/01/31 11:28:42;;;;;;;5.05;2.38;;;;;;;6.73;89.14;99063.81;4901286;29;20302;-82
2022/01/31 11:31:09;;;;;;;6.32;3.22;;;;;;;6.66;89.74;99054.34;4911920;29;20229;-83
2022/01/31 11:33:36;;;;;;;8.30;3.13;;;;;;;6.47;92.97;99062.47;4912929;29;20198;-82
2022/01/31 11:36:05;;;;;;;5.47;3.00;;;;;;;6.23;100.00;99065.38;4913839;29;20238;-85
2022/01/31 11:38:33;;;;;;;6.57;2.80;;;;;;;6.09;100.00;99050.97;4907648;29;20198;-84
2022/01/31 11:41:02;;;;;;;3.58;2.22;;;;;;;6.01;100.00;99054.84;4912724;29;20226;-86
2022/01/31 11:43:31;;;;;;;6.93;2.60;;;;;;;5.89;100.00;99066.13;4917474;29;20692;-86
2022/01/31 11:46:00;;;;;;;5.95;1.80;;;;;;;5.80;100.00;99045.19;4916715;29;20622;-85
2022/01/31 11:48:30;;;;;;;6.10;3.13;;;;;;;5.79;100.00;99054.16;4902618;29;20629;-84